Greensboro, NC

8:39 AM EST on December 29, 2014 (GMT -0500)
Smith Reynolds | Change Station
CLOSE
Current Station
Airport
Location: Winston-Salem,
Elevation: 968 ft
Nearby Weather Stations

Elev 968 ft 36.13 °N, 80.22 °W | Updated 45 minutes ago

Rain
Rain
50 °F
Feels Like 50 °F
N
5
Wind Variable Wind from SE

Today
High -- | Low -- °F
--% Chance of Precip.
Yesterday
High -- | Low -- °F
Precip. -- in
7:29 AM 5:13 PM
First Quarter, 59% visible
Pressure 30.09 in
Visibility 5.0 miles
Clouds Mostly Cloudy 400 ft
Mostly Cloudy 1600 ft
Overcast 7500 ft
Dew Point 48 °F
Humidity 93%
Rainfall 0.35 in
Snow Depth Not available.
UV 0 out of 12
Pollen .30 out of 12
Air Quality Not available.
Flu Activity Not available.
METAR KINT 291254Z AUTO 13004KT 5SM RA BR BKN004 BKN016 OVC075 10/09 A3009 RMK AO2 SLP188 P0010 T01000089 $

More Conditions Fewer Conditions

Pressure 30.09 in
Visibility 5.0 miles
Clouds Mostly Cloudy 400 ft
Mostly Cloudy 1600 ft
Overcast 7500 ft
Dew Point 48 °F
Humidity 93%
Rainfall 0.35 in
Snow Depth Not available.
UV 0 out of 12
Pollen .30 out of 12
Air Quality Not available.
Flu Activity Not available.
METAR KINT 291254Z AUTO 13004KT 5SM RA BR BKN004 BKN016 OVC075 10/09 A3009 RMK AO2 SLP188 P0010 T01000089 $

More Conditions Fewer Conditions

10-Day Weather Forecast

Almanac

Astronomy

Dec. 29, 2014 Rise Set
Actual Time
Civil Twilight
Nautical Twilight
Astronomical Twilight
Moon
Length of Visible Light
Length of Day
Tomorrow will be .
, % of the Moon is Illuminated

Today's Extremes

State Highs State Lows

Community

WunderPhotos

Upload Photos

1,781,580 photos uploaded!

WunderBlogs® & News

Nearby

Air Quality

  Air Quality AQ Index Pollutant
Not available.

Snow Depth

Station Depth Elevation

Earthquake Activity

City Distance Mag. Time & Date
Minimum magnitude displayed is 2.5.

Coastal Water Temperatures

Place Temperature

Nearby Weather Stations